sensor_id;sensor_type;location;lat;lon;timestamp;P1;durP1;ratioP1;P2;durP2;ratioP2
72645;SDS011;60687;53.876;10.674;2022-07-23T00:05:31;7.97;;;2.10;;
72645;SDS011;60687;53.876;10.674;2022-07-23T00:26:28;5.17;;;1.27;;
72645;SDS011;60687;53.876;10.674;2022-07-23T00:36:35;3.45;;;0.98;;
72645;SDS011;60687;53.876;10.674;2022-07-23T01:19:59;4.37;;;1.00;;
72645;SDS011;60687;53.876;10.674;2022-07-23T01:30:50;4.87;;;0.90;;
72645;SDS011;60687;53.876;10.674;2022-07-23T01:40:52;7.25;;;1.40;;
72645;SDS011;60687;53.876;10.674;2022-07-23T01:50:55;5.50;;;1.50;;
72645;SDS011;60687;53.876;10.674;2022-07-23T02:00:57;3.37;;;1.07;;
72645;SDS011;60687;53.876;10.674;2022-07-23T02:11:01;7.23;;;1.30;;
72645;SDS011;60687;53.876;10.674;2022-07-23T02:21:03;6.82;;;1.92;;
72645;SDS011;60687;53.876;10.674;2022-07-23T02:31:06;6.63;;;1.43;;
72645;SDS011;60687;53.876;10.674;2022-07-23T02:41:09;5.33;;;1.40;;
72645;SDS011;60687;53.876;10.674;2022-07-23T02:51:12;5.78;;;1.50;;
72645;SDS011;60687;53.876;10.674;2022-07-23T03:01:14;4.53;;;1.40;;
72645;SDS011;60687;53.876;10.674;2022-07-23T03:11:18;6.90;;;1.70;;
72645;SDS011;60687;53.876;10.674;2022-07-23T03:21:20;5.78;;;1.80;;
72645;SDS011;60687;53.876;10.674;2022-07-23T03:31:23;5.47;;;1.57;;
72645;SDS011;60687;53.876;10.674;2022-07-23T03:41:25;6.17;;;1.60;;
72645;SDS011;60687;53.876;10.674;2022-07-23T03:51:29;5.60;;;1.60;;
72645;SDS011;60687;53.876;10.674;2022-07-23T04:01:31;8.63;;;3.13;;
72645;SDS011;60687;53.876;10.674;2022-07-23T04:11:34;6.10;;;2.30;;
72645;SDS011;60687;53.876;10.674;2022-07-23T04:21:36;7.90;;;1.77;;
72645;SDS011;60687;53.876;10.674;2022-07-23T04:31:40;6.28;;;1.60;;
72645;SDS011;60687;53.876;10.674;2022-07-23T04:41:42;6.17;;;1.23;;
72645;SDS011;60687;53.876;10.674;2022-07-23T05:02:02;5.32;;;1.65;;
72645;SDS011;60687;53.876;10.674;2022-07-23T05:12:06;6.27;;;1.47;;
72645;SDS011;60687;53.876;10.674;2022-07-23T05:22:08;5.20;;;1.43;;
72645;SDS011;60687;53.876;10.674;2022-07-23T05:32:12;4.37;;;1.30;;
72645;SDS011;60687;53.876;10.674;2022-07-23T05:42:14;4.72;;;1.20;;
72645;SDS011;60687;53.876;10.674;2022-07-23T05:52:22;5.20;;;1.63;;
72645;SDS011;60687;53.876;10.674;2022-07-23T06:02:24;4.80;;;1.40;;
72645;SDS011;60687;53.876;10.674;2022-07-23T06:12:28;5.18;;;1.58;;
72645;SDS011;60687;53.876;10.674;2022-07-23T06:22:30;6.93;;;1.37;;
72645;SDS011;60687;53.876;10.674;2022-07-23T06:32:33;5.47;;;1.37;;
72645;SDS011;60687;53.876;10.674;2022-07-23T06:42:35;5.20;;;1.50;;
72645;SDS011;60687;53.876;10.674;2022-07-23T06:52:40;4.75;;;1.30;;
72645;SDS011;60687;53.876;10.674;2022-07-23T07:02:42;3.77;;;1.10;;
72645;SDS011;60687;53.876;10.674;2022-07-23T07:12:46;5.93;;;1.30;;
72645;SDS011;60687;53.876;10.674;2022-07-23T07:22:48;4.78;;;1.10;;
72645;SDS011;60687;53.876;10.674;2022-07-23T07:32:52;5.80;;;1.60;;
72645;SDS011;60687;53.876;10.674;2022-07-23T07:42:55;5.50;;;1.30;;
72645;SDS011;60687;53.876;10.674;2022-07-23T07:52:59;5.63;;;1.50;;
72645;SDS011;60687;53.876;10.674;2022-07-23T08:03:04;3.90;;;1.00;;
72645;SDS011;60687;53.876;10.674;2022-07-23T08:13:10;4.77;;;1.00;;
72645;SDS011;60687;53.876;10.674;2022-07-23T08:23:14;4.07;;;1.10;;
72645;SDS011;60687;53.876;10.674;2022-07-23T08:33:21;4.27;;;1.20;;
72645;SDS011;60687;53.876;10.674;2022-07-23T08:43:32;6.27;;;1.53;;
72645;SDS011;60687;53.876;10.674;2022-07-23T09:04:01;3.70;;;0.90;;
72645;SDS011;60687;53.876;10.674;2022-07-23T09:14:07;4.57;;;1.20;;
72645;SDS011;60687;53.876;10.674;2022-07-23T09:24:10;5.53;;;1.30;;
72645;SDS011;60687;53.876;10.674;2022-07-23T09:34:27;4.60;;;1.10;;
72645;SDS011;60687;53.876;10.674;2022-07-23T09:44:30;3.63;;;0.90;;
72645;SDS011;60687;53.876;10.674;2022-07-23T09:54:44;5.80;;;0.97;;
72645;SDS011;60687;53.876;10.674;2022-07-23T10:04:46;4.38;;;1.00;;
72645;SDS011;60687;53.876;10.674;2022-07-23T10:14:54;3.73;;;0.90;;
72645;SDS011;60687;53.876;10.674;2022-07-23T14:26:13;3.50;;;0.97;;
72645;SDS011;60687;53.876;10.674;2022-07-23T14:36:46;4.88;;;0.98;;
72645;SDS011;60687;53.876;10.674;2022-07-23T14:47:20;4.13;;;1.00;;
72645;SDS011;60687;53.876;10.674;2022-07-23T14:57:57;5.43;;;1.67;;
72645;SDS011;60687;53.876;10.674;2022-07-23T15:09:07;4.72;;;1.40;;
72645;SDS011;60687;53.876;10.674;2022-07-23T15:41:09;4.20;;;1.00;;
72645;SDS011;60687;53.876;10.674;2022-07-23T16:02:47;5.17;;;1.27;;
72645;SDS011;60687;53.876;10.674;2022-07-23T16:13:36;4.27;;;1.00;;
72645;SDS011;60687;53.876;10.674;2022-07-23T17:06:20;5.97;;;1.50;;
72645;SDS011;60687;53.876;10.674;2022-07-23T17:16:57;5.78;;;1.40;;
72645;SDS011;60687;53.876;10.674;2022-07-23T17:37:55;4.83;;;1.10;;
72645;SDS011;60687;53.876;10.674;2022-07-23T17:48:32;4.75;;;1.20;;
72645;SDS011;60687;53.876;10.674;2022-07-23T18:42:28;4.40;;;1.30;;
72645;SDS011;60687;53.876;10.674;2022-07-23T18:53:04;5.00;;;1.53;;
72645;SDS011;60687;53.876;10.674;2022-07-23T19:35:53;5.70;;;1.55;;
72645;SDS011;60687;53.876;10.674;2022-07-23T19:57:49;5.53;;;1.40;;
72645;SDS011;60687;53.876;10.674;2022-07-23T22:10:33;4.80;;;1.33;;
72645;SDS011;60687;53.876;10.674;2022-07-23T22:21:14;6.80;;;1.83;;
72645;SDS011;60687;53.876;10.674;2022-07-23T23:16:16;7.22;;;2.50;;
72645;SDS011;60687;53.876;10.674;2022-07-23T23:26:48;6.83;;;2.50;;
72645;SDS011;60687;53.876;10.674;2022-07-23T23:37:40;6.77;;;2.50;;
